createdAt,value
2023-02-11T00:00:16.502Z,14.02
2023-02-11T00:02:46.080Z,15.85
2023-02-11T00:05:14.607Z,14.32
2023-02-11T00:07:41.710Z,16.02
2023-02-11T00:10:09.410Z,11.02
2023-02-11T00:12:37.327Z,14.43
2023-02-11T00:15:05.053Z,17.60
2023-02-11T00:17:33.033Z,17.10
2023-02-11T00:20:00.264Z,19.20
2023-02-11T00:22:27.378Z,14.60
2023-02-11T00:24:54.799Z,18.67
2023-02-11T00:27:21.926Z,9.50
2023-02-11T00:29:49.093Z,19.80
2023-02-11T00:32:16.304Z,22.05
2023-02-11T00:34:43.449Z,13.90
2023-02-11T00:37:12.051Z,14.05
2023-02-11T00:39:41.761Z,19.67
2023-02-11T00:42:08.900Z,21.90
2023-02-11T00:44:36.060Z,19.00
2023-02-11T00:47:03.221Z,14.38
2023-02-11T00:49:30.352Z,15.65
2023-02-11T00:51:57.435Z,20.30
2023-02-11T00:54:24.554Z,16.40
2023-02-11T00:56:51.716Z,17.92
2023-02-11T00:59:18.830Z,15.90
2023-02-11T01:01:45.972Z,18.25
2023-02-11T01:04:13.127Z,17.63
2023-02-11T01:06:40.300Z,13.15
2023-02-11T01:09:07.419Z,20.90
2023-02-11T01:11:35.711Z,20.90
2023-02-11T01:14:03.223Z,15.00
2023-02-11T01:16:30.310Z,13.10
2023-02-11T01:18:58.737Z,20.90
2023-02-11T01:21:26.093Z,20.17
2023-02-11T01:23:53.521Z,18.38
2023-02-11T01:26:20.701Z,14.23
2023-02-11T01:28:48.076Z,14.68
2023-02-11T01:31:15.577Z,20.35
2023-02-11T01:33:42.781Z,18.10
2023-02-11T01:36:11.107Z,16.92
2023-02-11T01:38:38.341Z,16.90
2023-02-11T01:41:07.179Z,13.98
2023-02-11T01:43:42.172Z,16.35
2023-02-11T01:46:20.841Z,12.65
2023-02-11T01:48:56.237Z,18.58
2023-02-11T01:51:25.857Z,15.45
2023-02-11T01:54:12.231Z,18.48
2023-02-11T01:57:00.835Z,14.27
2023-02-11T01:59:31.324Z,17.02
2023-02-11T02:02:01.356Z,15.57
2023-02-11T02:04:32.545Z,21.33
2023-02-11T02:07:06.333Z,16.00
2023-02-11T02:09:39.134Z,17.08
2023-02-11T02:12:06.307Z,15.40
2023-02-11T02:14:33.421Z,17.27
2023-02-11T02:17:00.515Z,10.32
2023-02-11T02:19:49.095Z,17.33
2023-02-11T02:22:42.196Z,18.95
2023-02-11T02:25:19.767Z,16.25
2023-02-11T02:28:34.667Z,15.30
2023-02-11T02:31:25.956Z,17.40
2023-02-11T02:33:56.252Z,15.10
2023-02-11T02:36:28.474Z,17.08
2023-02-11T02:39:02.029Z,17.00
2023-02-11T02:41:30.842Z,19.10
2023-02-11T02:43:57.979Z,21.58
2023-02-11T02:46:29.800Z,20.33
2023-02-11T02:48:57.612Z,18.02
2023-02-11T02:51:24.731Z,10.50
2023-02-11T02:53:59.235Z,15.82
2023-02-11T02:56:32.935Z,20.95
2023-02-11T02:59:06.800Z,11.98
2023-02-11T03:01:39.862Z,15.15
2023-02-11T03:04:07.049Z,15.80
2023-02-11T03:06:49.782Z,12.90
2023-02-11T03:09:22.506Z,15.25
2023-02-11T03:11:49.828Z,18.13
2023-02-11T03:14:18.244Z,12.73
2023-02-11T03:16:46.424Z,22.15
2023-02-11T03:19:16.047Z,21.52
2023-02-11T03:21:44.500Z,22.73
2023-02-11T03:24:14.801Z,21.77
2023-02-11T03:26:44.828Z,17.10
2023-02-11T03:29:17.548Z,14.45
2023-02-11T03:31:53.711Z,19.58
2023-02-11T03:34:54.197Z,19.60
2023-02-11T03:37:33.336Z,17.52
2023-02-11T03:40:06.423Z,22.42
2023-02-11T03:42:36.863Z,18.70
2023-02-11T03:45:05.937Z,15.98
2023-02-11T03:47:35.510Z,18.90
2023-02-11T03:50:03.417Z,19.75
2023-02-11T03:52:31.532Z,24.35
2023-02-11T03:55:00.989Z,18.55
2023-02-11T03:57:28.172Z,16.45
2023-02-11T03:59:56.717Z,22.50
2023-02-11T04:02:31.835Z,28.67
2023-02-11T04:04:58.952Z,17.88
2023-02-11T04:07:26.477Z,22.00
2023-02-11T04:09:53.978Z,24.15
2023-02-11T04:12:21.201Z,18.85
2023-02-11T04:14:48.369Z,20.52
2023-02-11T04:17:15.506Z,21.17
2023-02-11T04:19:42.661Z,30.20
2023-02-11T04:22:09.917Z,21.58
2023-02-11T04:24:37.184Z,18.00
2023-02-11T04:27:04.361Z,27.58
2023-02-11T04:29:31.968Z,17.80
2023-02-11T04:31:59.100Z,17.13
2023-02-11T04:34:26.328Z,21.80
2023-02-11T04:36:53.480Z,22.88
2023-02-11T04:39:20.645Z,25.75
2023-02-11T04:41:47.773Z,25.15
2023-02-11T04:44:14.897Z,20.33
2023-02-11T04:46:42.152Z,25.80
2023-02-11T04:49:09.273Z,28.00
2023-02-11T04:51:36.358Z,21.08
2023-02-11T04:54:03.466Z,36.70
2023-02-11T04:56:30.573Z,24.92
2023-02-11T04:58:57.671Z,26.48
2023-02-11T05:01:24.787Z,24.20
2023-02-11T05:03:51.933Z,23.75
2023-02-11T05:06:19.101Z,18.70
2023-02-11T05:08:46.272Z,24.00
2023-02-11T05:11:16.969Z,24.67
2023-02-11T05:13:44.211Z,27.33
2023-02-11T05:16:11.411Z,26.08
2023-02-11T05:18:39.242Z,31.58
2023-02-11T05:21:07.603Z,30.08
2023-02-11T05:23:34.789Z,25.15
2023-02-11T05:26:02.207Z,22.95
2023-02-11T05:28:29.504Z,28.48
2023-02-11T05:30:56.725Z,27.52
2023-02-11T05:33:24.397Z,30.33
2023-02-11T05:35:51.830Z,28.75
2023-02-11T05:38:19.051Z,28.25
2023-02-11T05:40:46.251Z,30.50
2023-02-11T05:43:13.386Z,31.23
2023-02-11T05:45:40.472Z,25.13
2023-02-11T05:48:07.606Z,31.20
2023-02-11T05:50:34.730Z,28.40
2023-02-11T05:53:01.856Z,26.48
2023-02-11T05:55:29.201Z,24.55
2023-02-11T05:57:56.320Z,30.00
2023-02-11T06:00:23.503Z,33.70
2023-02-11T06:02:50.833Z,30.13
2023-02-11T06:05:17.994Z,30.17
2023-02-11T06:07:45.179Z,26.10
2023-02-11T06:10:12.545Z,30.33
2023-02-11T06:12:39.897Z,33.28
2023-02-11T06:15:07.474Z,30.13
2023-02-11T06:17:36.476Z,29.65
2023-02-11T06:20:04.332Z,32.33
2023-02-11T06:22:31.406Z,31.58
2023-02-11T06:25:01.872Z,27.90
2023-02-11T06:27:29.532Z,30.33
2023-02-11T06:29:56.837Z,29.35
2023-02-11T06:32:42.730Z,32.83
2023-02-11T06:35:12.038Z,32.28
2023-02-11T06:37:39.634Z,31.92
2023-02-11T06:40:06.946Z,31.25
2023-02-11T06:42:36.035Z,30.20
2023-02-11T06:45:06.181Z,28.38
2023-02-11T06:47:33.397Z,32.35
2023-02-11T06:50:00.529Z,37.80
2023-02-11T06:52:27.746Z,29.65
2023-02-11T06:54:54.819Z,28.27
2023-02-11T06:57:21.943Z,30.63
2023-02-11T06:59:49.028Z,31.60
2023-02-11T07:02:17.928Z,29.08
2023-02-11T07:04:46.118Z,33.60
2023-02-11T07:07:13.287Z,28.25
2023-02-11T07:09:40.398Z,31.95
2023-02-11T07:12:07.555Z,31.85
2023-02-11T07:14:34.611Z,29.20
2023-02-11T07:17:01.788Z,33.30
2023-02-11T07:19:28.890Z,38.95
2023-02-11T07:21:56.058Z,30.88
2023-02-11T07:24:23.422Z,29.08
2023-02-11T07:26:50.516Z,32.97
2023-02-11T07:29:17.637Z,34.53
2023-02-11T07:31:44.790Z,31.48
2023-02-11T07:34:12.046Z,35.80
2023-02-11T07:36:39.240Z,35.35
2023-02-11T07:39:06.348Z,35.90
2023-02-11T07:41:37.744Z,30.75
2023-02-11T07:44:05.276Z,35.45
2023-02-11T07:46:32.816Z,34.67
2023-02-11T07:48:59.925Z,32.90
2023-02-11T07:51:28.133Z,30.67
2023-02-11T07:53:55.857Z,28.65
2023-02-11T07:56:23.198Z,28.25
2023-02-11T07:58:51.058Z,34.28
2023-02-11T08:01:20.066Z,30.92
2023-02-11T08:03:47.165Z,33.72
2023-02-11T08:06:15.377Z,30.95
2023-02-11T08:08:42.959Z,33.10
2023-02-11T08:11:17.702Z,32.75
2023-02-11T08:13:45.085Z,26.48
2023-02-11T08:16:20.844Z,32.22
2023-02-11T08:18:48.148Z,33.88
2023-02-11T08:21:15.497Z,33.35
2023-02-11T08:23:43.807Z,29.88
2023-02-11T08:26:12.449Z,33.33
2023-02-11T08:28:40.497Z,33.15
2023-02-11T08:31:08.903Z,33.50
2023-02-11T08:33:36.124Z,30.77
2023-02-11T08:36:08.323Z,33.53
2023-02-11T08:38:35.540Z,36.67
2023-02-11T08:41:02.736Z,34.20
2023-02-11T08:43:29.885Z,29.95
2023-02-11T08:45:57.086Z,31.00
2023-02-11T08:48:24.219Z,30.60
2023-02-11T08:50:51.294Z,31.80
2023-02-11T08:53:18.405Z,33.33
2023-02-11T08:55:49.697Z,32.50
2023-02-11T08:58:19.083Z,26.05
2023-02-11T09:00:46.532Z,26.70
2023-02-11T09:03:14.319Z,31.10
2023-02-11T09:05:49.629Z,31.45
2023-02-11T09:08:16.967Z,31.60
2023-02-11T09:10:44.109Z,27.20
2023-02-11T09:13:11.880Z,27.85
2023-02-11T09:15:39.018Z,29.15
2023-02-11T09:18:06.412Z,29.85
2023-02-11T09:20:33.559Z,29.80
2023-02-11T09:23:00.709Z,36.15
2023-02-11T09:25:27.810Z,24.17
2023-02-11T09:27:54.971Z,30.00
2023-02-11T09:30:22.169Z,26.50
2023-02-11T09:32:49.272Z,24.00
2023-02-11T09:35:16.408Z,28.95
2023-02-11T09:37:43.563Z,30.50
2023-02-11T09:40:11.108Z,26.98
2023-02-11T09:42:41.370Z,25.48
2023-02-11T09:45:13.550Z,28.50
2023-02-11T09:48:00.901Z,27.17
2023-02-11T09:50:39.618Z,25.10
2023-02-11T09:53:10.774Z,25.08
2023-02-11T09:55:42.645Z,26.63
2023-02-11T09:58:21.664Z,27.52
2023-02-11T10:00:54.670Z,23.35
2023-02-11T10:03:21.766Z,23.75
2023-02-11T10:05:48.857Z,22.52
2023-02-11T10:08:35.683Z,24.25
2023-02-11T10:11:08.840Z,23.88
2023-02-11T10:16:25.645Z,21.00
2023-02-11T10:18:59.484Z,26.45
2023-02-11T10:21:51.439Z,27.92
2023-02-11T10:24:19.145Z,24.05
2023-02-11T10:26:46.596Z,21.60
2023-02-11T10:29:36.584Z,22.48
2023-02-11T10:32:06.213Z,22.90
2023-02-11T10:34:33.416Z,25.92
2023-02-11T10:37:00.586Z,22.77
2023-02-11T10:39:28.372Z,22.30
2023-02-11T10:42:01.312Z,22.27
2023-02-11T10:44:31.748Z,21.98
2023-02-11T10:47:00.948Z,20.08
2023-02-11T10:49:44.635Z,19.42
2023-02-11T10:52:28.266Z,23.58
2023-02-11T10:54:59.834Z,20.38
2023-02-11T10:57:29.247Z,19.30
2023-02-11T10:59:59.026Z,19.02
2023-02-11T11:02:34.250Z,17.60
2023-02-11T11:05:06.602Z,19.10
2023-02-11T11:07:34.185Z,19.23
2023-02-11T11:10:08.699Z,20.05
2023-02-11T11:12:42.070Z,21.08
2023-02-11T11:15:13.454Z,20.77
2023-02-11T11:17:40.547Z,18.48
2023-02-11T11:20:20.407Z,19.95
2023-02-11T11:22:48.212Z,19.02
2023-02-11T11:25:29.287Z,18.38
2023-02-11T11:28:01.247Z,20.63
2023-02-11T11:30:33.716Z,17.77
2023-02-11T11:33:02.043Z,18.17
2023-02-11T11:35:30.363Z,19.92
2023-02-11T11:38:01.664Z,19.00
2023-02-11T11:40:30.312Z,17.85
2023-02-11T11:43:12.473Z,20.10
2023-02-11T11:45:40.056Z,17.02
2023-02-11T11:48:22.518Z,16.25
2023-02-11T11:50:58.229Z,15.40
2023-02-11T11:53:58.901Z,14.68
2023-02-11T11:56:36.191Z,14.18
2023-02-11T11:59:07.127Z,14.52
2023-02-11T12:01:40.132Z,13.35
2023-02-11T12:04:19.426Z,14.98
2023-02-11T12:06:50.928Z,13.25
2023-02-11T12:09:27.295Z,11.77
2023-02-11T12:11:54.404Z,13.90
2023-02-11T12:14:29.666Z,12.35
2023-02-11T12:17:15.457Z,11.85
2023-02-11T12:22:42.853Z,13.13
2023-02-11T12:25:22.086Z,12.13
2023-02-11T12:27:54.196Z,10.07
2023-02-11T12:30:33.632Z,12.40
2023-02-11T12:36:00.483Z,11.00
2023-02-11T12:39:04.550Z,13.38
2023-02-11T12:42:02.414Z,12.82
2023-02-11T12:44:50.659Z,9.77
2023-02-11T12:47:44.107Z,13.30
2023-02-11T12:50:14.237Z,12.73
2023-02-11T12:52:56.293Z,12.60
2023-02-11T12:55:26.718Z,11.40
2023-02-11T12:57:54.959Z,13.07
2023-02-11T13:00:27.437Z,13.02
2023-02-11T13:03:03.109Z,15.35
2023-02-11T13:05:34.252Z,12.77
2023-02-11T13:08:27.493Z,13.70
2023-02-11T13:11:21.194Z,12.27
2023-02-11T13:14:09.868Z,14.02
2023-02-11T13:16:39.313Z,12.80
2023-02-11T13:19:20.823Z,12.73
2023-02-11T13:22:13.327Z,12.73
2023-02-11T13:25:03.667Z,10.10
2023-02-11T13:27:30.765Z,11.02
2023-02-11T13:30:14.457Z,11.30
2023-02-11T13:32:56.593Z,12.25
2023-02-11T13:35:29.731Z,12.15
2023-02-11T13:37:57.597Z,12.57
2023-02-11T13:40:29.276Z,12.35
2023-02-11T13:43:03.966Z,12.40
2023-02-11T13:45:40.878Z,10.98
2023-02-11T13:48:30.944Z,11.88
2023-02-11T13:51:24.295Z,12.43
2023-02-11T13:53:53.593Z,14.00
2023-02-11T13:56:37.784Z,11.13
2023-02-11T13:59:07.178Z,12.35
2023-02-11T14:02:12.387Z,14.82
2023-02-11T14:05:21.374Z,13.68
2023-02-11T14:08:29.442Z,13.35
2023-02-11T14:10:58.151Z,14.70
2023-02-11T14:13:35.629Z,11.15
2023-02-11T14:16:10.507Z,14.68
2023-02-11T14:18:49.906Z,12.15
2023-02-11T14:23:47.031Z,11.73
2023-02-11T14:26:25.575Z,12.55
2023-02-11T14:28:55.470Z,12.50
2023-02-11T14:31:25.043Z,18.30
2023-02-11T14:33:55.215Z,12.75
2023-02-11T14:36:31.408Z,14.38
2023-02-11T14:39:21.636Z,11.65
2023-02-11T14:41:51.104Z,12.25
2023-02-11T14:44:19.893Z,11.43
2023-02-11T14:46:48.300Z,12.63
2023-02-11T14:49:21.126Z,12.02
2023-02-11T14:51:48.513Z,15.80
2023-02-11T14:54:21.140Z,13.15
2023-02-11T14:56:48.833Z,11.07
2023-02-11T14:59:23.421Z,10.25
2023-02-11T15:01:51.078Z,12.27
2023-02-11T15:04:29.012Z,12.27
2023-02-11T15:06:57.525Z,13.73
2023-02-11T15:09:30.460Z,13.73
2023-02-11T15:11:58.449Z,12.13
2023-02-11T15:14:31.661Z,13.52
2023-02-11T15:17:03.063Z,12.70
2023-02-11T15:19:35.827Z,12.85
2023-02-11T15:22:04.996Z,12.60
2023-02-11T15:24:34.544Z,12.55
2023-02-11T15:27:21.100Z,13.05
2023-02-11T15:29:49.450Z,10.10
2023-02-11T15:32:24.235Z,10.43
2023-02-11T15:34:53.304Z,11.55
2023-02-11T15:37:22.356Z,12.70
2023-02-11T15:39:49.713Z,10.73
2023-02-11T15:42:22.882Z,13.27
2023-02-11T15:44:56.471Z,12.02
2023-02-11T15:47:24.050Z,11.50
2023-02-11T15:49:51.406Z,14.30
2023-02-11T15:52:23.885Z,11.90
2023-02-11T15:54:51.525Z,13.65
2023-02-11T15:57:18.835Z,13.98
2023-02-11T15:59:47.888Z,12.63
2023-02-11T16:02:20.172Z,13.30
2023-02-11T16:05:02.839Z,10.50
2023-02-11T16:07:39.782Z,11.43
2023-02-11T16:10:21.938Z,16.00
2023-02-11T16:12:53.345Z,11.85
2023-02-11T16:15:31.055Z,13.00
2023-02-11T16:17:58.273Z,11.40
2023-02-11T16:20:25.414Z,12.93
2023-02-11T16:22:52.584Z,11.70
2023-02-11T16:25:20.966Z,11.05
2023-02-11T16:27:55.032Z,12.07
2023-02-11T16:30:24.741Z,16.95
2023-02-11T16:32:53.980Z,12.95
2023-02-11T16:35:21.646Z,16.63
2023-02-11T16:37:48.782Z,10.40
2023-02-11T16:40:15.964Z,10.95
2023-02-11T16:42:43.254Z,12.27
2023-02-11T16:45:10.492Z,13.38
2023-02-11T16:47:40.912Z,15.48
2023-02-11T16:50:13.259Z,15.23
2023-02-11T16:52:40.359Z,14.77
2023-02-11T16:55:08.809Z,14.27
2023-02-11T16:57:35.978Z,14.55
2023-02-11T17:00:03.076Z,12.32
2023-02-11T17:02:31.183Z,12.13
2023-02-11T17:05:02.096Z,11.65
2023-02-11T17:07:29.492Z,15.55
2023-02-11T17:09:56.957Z,16.42
2023-02-11T17:12:27.184Z,14.52
2023-02-11T17:14:54.739Z,14.93
2023-02-11T17:17:24.555Z,18.33
2023-02-11T17:19:51.731Z,14.00
2023-02-11T17:22:19.205Z,13.57
2023-02-11T17:24:46.353Z,14.45
2023-02-11T17:27:13.707Z,14.07
2023-02-11T17:29:40.843Z,15.00
2023-02-11T17:32:08.004Z,13.48
2023-02-11T17:34:35.228Z,13.40
2023-02-11T17:37:08.861Z,14.30
2023-02-11T17:39:36.537Z,14.57
2023-02-11T17:42:03.964Z,15.85
2023-02-11T17:44:31.026Z,12.20
2023-02-11T17:46:58.235Z,13.18
2023-02-11T17:49:25.590Z,17.23
2023-02-11T17:51:52.688Z,14.02
2023-02-11T17:54:20.122Z,14.00
2023-02-11T17:56:50.546Z,16.48
2023-02-11T17:59:17.955Z,12.18
2023-02-11T18:01:45.151Z,14.70
2023-02-11T18:04:16.623Z,15.95
2023-02-11T18:06:44.330Z,12.90
2023-02-11T18:09:11.555Z,13.88
2023-02-11T18:11:39.631Z,14.48
2023-02-11T18:14:08.341Z,13.50
2023-02-11T18:16:38.595Z,14.30
2023-02-11T18:19:07.376Z,14.77
2023-02-11T18:21:34.436Z,15.73
2023-02-11T18:24:06.514Z,13.35
2023-02-11T18:26:34.337Z,14.15
2023-02-11T18:29:01.418Z,17.30
2023-02-11T18:31:28.910Z,15.45
2023-02-11T18:33:56.162Z,17.13
2023-02-11T18:36:23.457Z,15.95
2023-02-11T18:38:52.506Z,15.23
2023-02-11T18:41:19.645Z,17.85
2023-02-11T18:43:46.768Z,16.00
2023-02-11T18:46:15.074Z,19.38
2023-02-11T18:48:44.672Z,16.77
2023-02-11T18:51:13.003Z,16.55
2023-02-11T18:53:40.142Z,15.40
2023-02-11T18:56:10.845Z,16.10
2023-02-11T18:58:38.596Z,14.13
2023-02-11T19:01:19.451Z,16.27
2023-02-11T19:03:46.640Z,15.80
2023-02-11T19:06:14.750Z,13.60
2023-02-11T19:08:41.908Z,16.85
2023-02-11T19:11:09.056Z,14.40
2023-02-11T19:13:36.424Z,14.68
2023-02-11T19:16:11.503Z,18.17
2023-02-11T19:18:39.020Z,18.25
2023-02-11T19:21:09.849Z,15.20
2023-02-11T19:23:37.059Z,17.90
2023-02-11T19:26:04.662Z,19.75
2023-02-11T19:28:32.292Z,17.02
2023-02-11T19:31:05.348Z,16.55
2023-02-11T19:33:32.534Z,13.55
2023-02-11T19:36:03.523Z,16.48
2023-02-11T19:38:30.672Z,18.92
2023-02-11T19:40:58.137Z,16.48
2023-02-11T19:43:25.733Z,16.58
2023-02-11T19:45:56.157Z,18.08
2023-02-11T19:48:23.952Z,13.77
2023-02-11T19:50:51.629Z,15.25
2023-02-11T19:53:18.722Z,14.55
2023-02-11T19:55:45.828Z,16.17
2023-02-11T19:58:12.979Z,13.00
2023-02-11T20:00:40.121Z,16.92
2023-02-11T20:03:07.360Z,17.45
2023-02-11T20:05:34.947Z,16.20
2023-02-11T20:08:02.087Z,16.98
2023-02-11T20:10:29.173Z,17.77
2023-02-11T20:12:56.368Z,16.60
2023-02-11T20:15:24.054Z,18.08
2023-02-11T20:17:51.397Z,16.40
2023-02-11T20:20:18.543Z,17.30
2023-02-11T20:22:45.634Z,17.83
2023-02-11T20:25:12.779Z,18.75
2023-02-11T20:27:40.164Z,17.23
2023-02-11T20:30:07.702Z,17.02
2023-02-11T20:32:38.251Z,17.05
2023-02-11T20:35:07.179Z,14.20
2023-02-11T20:37:34.464Z,15.82
2023-02-11T20:40:01.597Z,19.58
2023-02-11T20:42:28.653Z,21.48
2023-02-11T20:44:55.723Z,17.92
2023-02-11T20:47:22.849Z,22.88
2023-02-11T20:49:51.132Z,21.95
2023-02-11T20:52:18.259Z,18.25
2023-02-11T20:54:45.391Z,14.63
2023-02-11T20:57:12.472Z,17.85
2023-02-11T20:59:39.619Z,19.08
2023-02-11T21:02:08.101Z,17.70
2023-02-11T21:04:35.392Z,17.77
2023-02-11T21:07:03.119Z,19.50
2023-02-11T21:09:31.357Z,16.45
2023-02-11T21:11:58.837Z,20.95
2023-02-11T21:14:26.673Z,22.77
2023-02-11T21:16:54.069Z,33.05
2023-02-11T21:19:21.300Z,21.15
2023-02-11T21:21:48.476Z,28.45
2023-02-11T21:24:16.075Z,25.50
2023-02-11T21:26:43.323Z,16.05
2023-02-11T21:29:10.648Z,17.85
2023-02-11T21:31:38.441Z,20.23
2023-02-11T21:34:06.137Z,16.92
2023-02-11T21:36:33.293Z,24.77
2023-02-11T21:39:01.733Z,22.00
2023-02-11T21:41:29.108Z,20.25
2023-02-11T21:43:57.231Z,14.68
2023-02-11T21:46:24.697Z,18.88
2023-02-11T21:48:52.529Z,16.20
2023-02-11T21:51:20.884Z,19.92
2023-02-11T21:53:47.966Z,23.50
2023-02-11T21:56:16.457Z,20.20
2023-02-11T21:58:44.043Z,20.05
2023-02-11T22:01:15.368Z,16.88
2023-02-11T22:03:42.560Z,23.58
2023-02-11T22:06:10.930Z,19.23
2023-02-11T22:08:38.273Z,22.02
2023-02-11T22:11:06.731Z,20.27
2023-02-11T22:13:34.318Z,19.20
2023-02-11T22:16:02.497Z,19.30
2023-02-11T22:18:30.311Z,18.50
2023-02-11T22:21:17.746Z,17.05
2023-02-11T22:23:45.439Z,18.00
2023-02-11T22:26:16.801Z,17.88
2023-02-11T22:28:44.252Z,21.20
2023-02-11T22:31:22.228Z,17.13
2023-02-11T22:33:49.480Z,18.00
2023-02-11T22:36:21.056Z,18.13
2023-02-11T22:38:48.269Z,21.52
2023-02-11T22:41:15.648Z,19.30
2023-02-11T22:43:43.286Z,21.17
2023-02-11T22:46:12.567Z,20.55
2023-02-11T22:48:39.714Z,21.77
2023-02-11T22:51:08.226Z,18.63
2023-02-11T22:53:35.416Z,20.48
2023-02-11T22:56:07.076Z,21.20
2023-02-11T22:58:34.519Z,18.83
2023-02-11T23:01:01.961Z,18.95
2023-02-11T23:03:29.645Z,21.77
2023-02-11T23:05:57.891Z,21.58
2023-02-11T23:08:25.395Z,17.38
2023-02-11T23:10:52.526Z,20.52
2023-02-11T23:13:19.668Z,19.80
2023-02-11T23:15:47.393Z,18.13
2023-02-11T23:18:15.148Z,23.13
2023-02-11T23:20:43.453Z,21.80
2023-02-11T23:23:10.684Z,21.20
2023-02-11T23:25:42.571Z,22.05
2023-02-11T23:28:09.898Z,19.88
2023-02-11T23:30:37.033Z,23.83
2023-02-11T23:33:04.199Z,21.00
2023-02-11T23:35:31.403Z,20.35
2023-02-11T23:37:58.577Z,24.38
2023-02-11T23:40:25.742Z,19.13
2023-02-11T23:42:52.961Z,21.25
2023-02-11T23:45:20.131Z,17.83
2023-02-11T23:47:47.591Z,21.50
2023-02-11T23:50:14.896Z,21.45
2023-02-11T23:52:42.320Z,20.23
2023-02-11T23:55:09.941Z,18.00
2023-02-11T23:57:37.293Z,20.10
